Time;durP1;ratioP1;P1;durP2;ratioP2;P2;SDS_P1;SDS_P2;PMS_P1;PMS_P2;Temp;Humidity;BMP_temperature;BMP_pressure;BME280_temperature;BME280_humidity;BME280_pressure;Samples;Min_cycle;Max_cycle;Signal;HPM_P1;HPM_P2
2022/05/19 00:00:28;;;;;;;3.13;2.93;;;;;;;21.06;64.71;101033.00;5051480;28;20214;-81
2022/05/19 00:02:56;;;;;;;2.87;2.67;;;;;;;21.03;65.22;101016.31;5041957;28;20218;-82
2022/05/19 00:05:23;;;;;;;3.03;2.83;;;;;;;21.00;65.13;101007.66;5058792;28;20259;-81
2022/05/19 00:07:49;;;;;;;3.60;3.30;;;;;;;20.98;65.19;101013.03;5058448;28;20225;-83
2022/05/19 00:10:15;;;;;;;3.20;2.87;;;;;;;20.97;65.43;101000.72;5056439;28;20206;-83
2022/05/19 00:12:42;;;;;;;3.53;3.33;;;;;;;20.96;65.46;101001.63;5058289;28;20198;-83
2022/05/19 00:15:11;;;;;;;2.63;2.43;;;;;;;20.94;65.73;101002.66;5057409;28;20206;-81
2022/05/19 00:17:38;;;;;;;3.23;3.00;;;;;;;20.89;65.77;100992.31;5057625;28;20221;-82
2022/05/19 00:20:07;;;;;;;3.43;3.17;;;;;;;20.89;65.58;100996.72;5057945;28;20243;-82
2022/05/19 00:22:33;;;;;;;3.27;3.07;;;;;;;20.82;65.49;100991.75;5058115;28;20240;-80
2022/05/19 00:24:59;;;;;;;2.90;2.70;;;;;;;20.76;65.60;100989.44;5058713;28;20236;-81
2022/05/19 00:27:26;;;;;;;2.80;2.67;;;;;;;20.76;65.85;100985.94;5058316;28;20283;-82
2022/05/19 00:29:52;;;;;;;3.73;3.30;;;;;;;20.75;65.49;100984.19;5055211;28;20202;-82
2022/05/19 00:32:18;;;;;;;3.53;3.30;;;;;;;20.75;65.86;100986.84;5049221;28;20248;-83
2022/05/19 00:34:45;;;;;;;3.40;3.20;;;;;;;20.75;65.73;100994.81;5042023;28;20198;-83
2022/05/19 00:37:13;;;;;;;3.40;3.20;;;;;;;20.70;65.81;100983.59;5058083;28;20724;-82
2022/05/19 00:39:39;;;;;;;3.17;2.97;;;;;;;20.71;65.74;100991.47;5057602;28;20206;-83
2022/05/19 00:44:58;;;;;;;3.50;3.20;;;;;;;20.63;64.99;101012.22;5058682;28;20208;-82
2022/05/19 00:47:26;;;;;;;3.80;3.50;;;;;;;20.65;64.20;101022.75;5058059;28;20704;-83
2022/05/19 00:49:53;;;;;;;4.17;3.30;;;;;;;20.69;63.56;101054.34;5058268;28;20687;-82
2022/05/19 00:52:25;;;;;;;3.90;3.60;;;;;;;20.73;63.57;101047.09;5058815;28;20619;-83
2022/05/19 00:55:02;;;;;;;4.10;3.80;;;;;;;20.67;64.43;101060.69;5057993;28;20209;-82
2022/05/19 00:57:31;;;;;;;3.57;3.37;;;;;;;20.65;65.16;101005.03;5059012;28;20225;-82
2022/05/19 01:00:02;;;;;;;5.47;3.23;;;;;;;20.58;64.77;101003.63;5057905;28;20213;-82
2022/05/19 01:02:34;;;;;;;3.40;3.20;;;;;;;20.47;65.26;101016.56;5052202;28;20225;-83
2022/05/19 01:05:04;;;;;;;3.20;2.90;;;;;;;20.49;64.69;101004.94;5045458;28;20200;-83
2022/05/19 01:07:36;;;;;;;3.87;3.47;;;;;;;20.44;64.92;101013.16;5057906;28;20230;-82
2022/05/19 01:10:06;;;;;;;3.73;3.43;;;;;;;20.44;65.35;100996.38;5057682;28;20208;-82
2022/05/19 01:12:34;;;;;;;3.53;3.33;;;;;;;20.43;64.36;101007.91;5058643;28;20578;-82
2022/05/19 01:15:01;;;;;;;4.00;3.70;;;;;;;20.45;65.24;100995.44;5057491;28;20209;-82
2022/05/19 01:17:28;;;;;;;3.83;3.53;;;;;;;20.53;65.02;101003.84;5057942;28;20707;-82
2022/05/19 01:19:58;;;;;;;4.03;3.80;;;;;;;20.53;64.88;101001.19;5057300;28;20209;-82
2022/05/19 01:22:32;;;;;;;4.00;3.70;;;;;;;20.50;62.93;101049.13;5057285;28;20346;-82
2022/05/19 01:25:04;;;;;;;3.47;3.27;;;;;;;20.47;63.59;101053.72;5057469;28;20256;-82
2022/05/19 01:27:32;;;;;;;3.93;3.47;;;;;;;20.56;64.00;101038.19;5057332;28;20226;-81
2022/05/19 01:29:59;;;;;;;3.60;3.40;;;;;;;20.53;64.42;101040.97;5056649;28;20259;-83
2022/05/19 01:32:27;;;;;;;3.50;3.30;;;;;;;20.59;63.06;101075.22;5051661;28;20205;-83
2022/05/19 01:34:54;;;;;;;3.73;3.43;;;;;;;20.63;63.72;101050.25;5043566;28;20201;-82
2022/05/19 01:37:21;;;;;;;3.80;3.30;;;;;;;20.62;63.83;101055.63;5056714;28;20237;-82
2022/05/19 01:39:53;;;;;;;4.20;3.80;;;;;;;20.66;64.38;101028.00;5056409;28;20213;-83
2022/05/19 01:42:30;;;;;;;3.57;3.27;;;;;;;20.61;63.62;101051.25;5035165;28;20281;-79
2022/05/19 01:45:07;;;;;;;3.50;3.30;;;;;;;20.60;63.06;101057.50;5015337;28;20548;-79
2022/05/19 01:47:42;;;;;;;3.60;3.10;;;;;;;20.64;62.53;101072.31;5014489;28;20230;-80
2022/05/19 01:50:15;;;;;;;3.63;3.40;;;;;;;20.66;62.15;101091.66;5013852;28;20301;-82
2022/05/19 01:52:47;;;;;;;3.50;3.30;;;;;;;20.57;63.03;101073.53;5014740;28;20207;-80
2022/05/19 01:55:19;;;;;;;4.23;3.93;;;;;;;20.57;61.51;101105.34;5015012;28;20211;-81
2022/05/19 01:57:52;;;;;;;3.70;3.50;;;;;;;20.63;61.60;101116.56;5014746;28;20226;-81
2022/05/19 02:00:21;;;;;;;3.87;3.57;;;;;;;20.63;61.93;101111.25;5014607;28;20215;-79
2022/05/19 02:02:53;;;;;;;3.87;3.57;;;;;;;20.67;61.21;101117.25;5014280;28;20227;-79
2022/05/19 02:05:30;;;;;;;3.50;3.20;;;;;;;20.63;61.35;101134.25;5014760;28;20222;-82
2022/05/19 02:08:01;;;;;;;3.63;3.33;;;;;;;20.61;62.40;101115.78;5015103;28;20291;-80
2022/05/19 02:10:31;;;;;;;3.43;3.23;;;;;;;20.64;61.19;101114.75;5018471;28;20229;-82
2022/05/19 02:13:44;;;;;;;3.93;3.50;;;;;;;20.72;60.85;101128.50;5037689;28;20198;-80
2022/05/19 02:16:15;;;;;;;5.50;3.40;;;;;;;20.73;60.61;101137.31;5050513;28;20255;-81
2022/05/19 02:18:43;;;;;;;3.70;3.43;;;;;;;20.73;61.41;101142.63;5054747;28;20244;-81
2022/05/19 02:21:11;;;;;;;3.27;3.07;;;;;;;20.70;60.86;101132.16;5054870;28;20213;-80
2022/05/19 02:23:40;;;;;;;3.73;3.43;;;;;;;20.72;61.46;101128.50;5046718;28;20667;-82
2022/05/19 02:26:07;;;;;;;3.17;2.97;;;;;;;20.71;61.65;101115.31;5044345;28;20265;-82
2022/05/19 02:28:37;;;;;;;3.53;3.33;;;;;;;20.73;61.27;101110.78;5054752;28;20256;-82
2022/05/19 02:31:04;;;;;;;3.23;3.03;;;;;;;20.59;60.74;101132.69;5054128;28;20214;-82
2022/05/19 02:33:32;;;;;;;3.60;3.30;;;;;;;20.62;61.26;101124.59;5050791;28;20198;-81
2022/05/19 02:35:59;;;;;;;3.90;3.50;;;;;;;20.61;63.22;101081.31;5038337;28;20271;-81
2022/05/19 02:38:25;;;;;;;3.37;3.17;;;;;;;20.60;63.77;101039.78;5054631;28;20311;-81
2022/05/19 02:40:51;;;;;;;3.60;3.40;;;;;;;20.51;64.09;101029.59;5053139;28;20210;-82
2022/05/19 02:43:19;;;;;;;3.57;3.27;;;;;;;20.48;64.60;101011.22;5030418;28;20222;-82
2022/05/19 02:45:46;;;;;;;3.60;3.40;;;;;;;20.38;65.26;100994.06;5015050;28;20269;-82
2022/05/19 02:48:14;;;;;;;3.37;3.17;;;;;;;20.32;65.69;100975.81;5014879;28;20284;-82
2022/05/19 02:50:44;;;;;;;4.30;3.40;;;;;;;20.29;65.44;100968.84;5014164;28;20199;-83
2022/05/19 02:53:11;;;;;;;4.17;3.90;;;;;;;20.29;65.83;100965.34;5015589;28;20203;-82
2022/05/19 02:55:38;;;;;;;5.33;3.63;;;;;;;20.24;65.71;100960.28;5015507;28;20216;-82
2022/05/19 02:58:05;;;;;;;3.67;3.37;;;;;;;20.20;65.69;100975.50;5015013;28;20458;-83
2022/05/19 03:00:32;;;;;;;3.80;3.33;;;;;;;20.19;65.93;100962.31;5014517;28;20207;-83
2022/05/19 03:02:58;;;;;;;3.70;3.50;;;;;;;20.12;66.10;100975.03;5015384;28;20227;-83
2022/05/19 03:05:27;;;;;;;3.27;3.00;;;;;;;20.10;65.37;100978.66;5022879;28;20265;-80
2022/05/19 03:07:55;;;;;;;3.30;3.10;;;;;;;20.05;65.69;100976.25;5026460;28;20257;-81
2022/05/19 03:10:22;;;;;;;5.43;3.90;;;;;;;20.06;65.80;100983.28;5022802;28;20203;-79
2022/05/19 03:12:48;;;;;;;3.40;3.20;;;;;;;20.03;65.95;100970.16;5033920;28;20195;-80
2022/05/19 03:15:15;;;;;;;3.77;3.47;;;;;;;20.01;64.77;101004.69;5044704;28;20255;-83
2022/05/19 03:17:42;;;;;;;3.30;3.10;;;;;;;20.03;65.12;101001.97;5055347;28;20225;-82
2022/05/19 03:20:11;;;;;;;3.47;3.20;;;;;;;20.03;64.54;101008.13;5055413;28;20549;-82
2022/05/19 03:22:37;;;;;;;4.30;4.00;;;;;;;20.05;65.15;100994.81;5055632;28;20271;-83
2022/05/19 03:25:07;;;;;;;3.60;3.30;;;;;;;19.90;64.30;101043.25;5055656;28;20205;-83
2022/05/19 03:27:34;;;;;;;3.57;3.27;;;;;;;19.95;63.74;101043.91;5055164;28;20258;-82
2022/05/19 03:30:01;;;;;;;4.20;3.90;;;;;;;19.89;61.95;101066.25;5054483;28;20255;-80
2022/05/19 03:32:28;;;;;;;3.67;3.40;;;;;;;20.02;62.96;101077.13;5055397;28;20200;-83
2022/05/19 03:34:54;;;;;;;3.77;3.57;;;;;;;19.97;62.89;101082.63;5051894;28;20197;-81
2022/05/19 03:37:21;;;;;;;3.80;3.50;;;;;;;20.09;62.53;101082.97;5038811;28;20230;-82
2022/05/19 03:39:47;;;;;;;3.53;3.30;;;;;;;20.17;61.64;101108.16;5054850;28;20213;-80
2022/05/19 03:42:15;;;;;;;3.97;3.67;;;;;;;20.17;61.23;101116.13;5055036;28;20225;-81
2022/05/19 03:44:41;;;;;;;5.57;3.97;;;;;;;20.24;61.90;101114.06;5056592;28;20211;-81
2022/05/19 03:47:08;;;;;;;4.97;3.50;;;;;;;20.28;61.68;101112.97;5058716;28;20633;-82
2022/05/19 03:49:35;;;;;;;4.30;4.00;;;;;;;20.27;61.39;101121.00;5058209;28;20228;-83
2022/05/19 03:52:01;;;;;;;4.27;3.87;;;;;;;20.23;60.81;101112.31;5059167;28;20210;-82
2022/05/19 03:54:28;;;;;;;3.70;3.50;;;;;;;20.27;61.04;101119.19;5058631;28;20209;-80
2022/05/19 03:56:54;;;;;;;3.90;3.57;;;;;;;20.23;60.60;101115.81;5059182;28;20205;-81
2022/05/19 03:59:22;;;;;;;3.33;3.13;;;;;;;20.24;61.51;101109.59;5058399;28;20209;-82
2022/05/19 04:01:49;;;;;;;3.90;3.50;;;;;;;20.30;62.35;101091.69;5057990;28;20207;-82
2022/05/19 04:04:15;;;;;;;3.60;3.37;;;;;;;20.27;62.52;101083.88;5038734;28;20626;-83
2022/05/19 04:06:42;;;;;;;3.10;3.00;;;;;;;20.22;62.33;101073.50;5057541;28;20255;-82
2022/05/19 04:09:08;;;;;;;4.17;3.87;;;;;;;20.19;62.21;101090.41;5057760;28;20283;-80
2022/05/19 04:11:35;;;;;;;3.50;3.30;;;;;;;20.19;61.52;101111.59;5058954;28;20261;-80
2022/05/19 04:14:02;;;;;;;3.33;3.13;;;;;;;20.23;61.09;101114.97;5056919;28;20209;-80
2022/05/19 04:16:30;;;;;;;3.80;3.50;;;;;;;20.26;61.44;101117.50;5058225;28;20209;-81
2022/05/19 04:18:56;;;;;;;5.70;3.70;;;;;;;20.28;61.38;101109.44;5057702;28;20236;-82
2022/05/19 04:21:22;;;;;;;4.63;3.93;;;;;;;20.34;61.20;101125.91;5058756;28;20683;-82
2022/05/19 04:23:49;;;;;;;4.10;3.40;;;;;;;20.41;61.12;101129.97;5058879;28;20302;-80
2022/05/19 04:26:15;;;;;;;3.90;3.60;;;;;;;20.41;60.13;101142.38;5058518;28;20217;-82
2022/05/19 04:28:41;;;;;;;3.67;3.37;;;;;;;20.40;59.77;101156.59;5055503;28;20229;-81
2022/05/19 04:31:08;;;;;;;3.63;3.37;;;;;;;20.34;60.90;101149.78;5055892;28;20210;-79
2022/05/19 04:33:35;;;;;;;3.83;3.53;;;;;;;20.40;60.41;101135.38;5048457;28;20201;-80
2022/05/19 04:36:02;;;;;;;3.73;3.40;;;;;;;20.41;60.00;101147.69;5043435;28;20209;-80
2022/05/19 04:38:29;;;;;;;3.60;3.30;;;;;;;20.44;59.30;101177.56;5055960;28;20229;-79
2022/05/19 04:40:55;;;;;;;3.60;3.30;;;;;;;20.51;59.59;101175.47;5055070;28;20209;-80
2022/05/19 04:43:23;;;;;;;3.60;3.33;;;;;;;20.54;59.83;101163.88;5055290;28;20742;-81
2022/05/19 04:45:49;;;;;;;3.00;2.80;;;;;;;20.61;60.43;101146.75;5055172;28;20620;-81
2022/05/19 04:48:16;;;;;;;4.23;3.80;;;;;;;20.59;59.50;101175.13;5054852;28;20727;-81
2022/05/19 04:50:44;;;;;;;3.97;3.73;;;;;;;20.57;60.25;101176.97;5054699;28;20255;-81
2022/05/19 04:53:11;;;;;;;8.23;3.77;;;;;;;20.57;59.79;101175.19;5056073;28;20645;-81
2022/05/19 04:55:39;;;;;;;3.77;3.57;;;;;;;20.64;59.70;101178.44;5055636;28;20759;-82
2022/05/19 04:58:06;;;;;;;3.30;3.10;;;;;;;20.67;59.40;101180.06;5055743;28;20233;-81
2022/05/19 05:00:33;;;;;;;3.50;3.20;;;;;;;20.72;60.35;101173.59;5056210;28;20214;-83
2022/05/19 05:03:00;;;;;;;3.47;3.27;;;;;;;20.77;59.34;101176.00;5046699;28;20233;-82
2022/05/19 05:05:26;;;;;;;6.07;4.27;;;;;;;20.79;60.05;101177.69;5037785;28;20207;-83
2022/05/19 05:07:54;;;;;;;3.57;3.37;;;;;;;20.80;60.11;101157.31;5056659;28;20278;-81
2022/05/19 05:10:20;;;;;;;4.67;3.27;;;;;;;20.80;59.84;101165.25;5024426;28;20203;-81
2022/05/19 05:12:47;;;;;;;4.30;4.00;;;;;;;20.78;61.35;101130.84;5026998;28;20190;-82
2022/05/19 05:15:14;;;;;;;4.13;3.40;;;;;;;20.77;61.29;101121.19;5026564;28;20229;-81
2022/05/19 05:17:40;;;;;;;3.97;3.67;;;;;;;20.78;61.22;101125.53;5025127;28;20250;-82
2022/05/19 05:20:09;;;;;;;3.57;3.37;;;;;;;20.70;60.01;101164.00;5024975;28;20199;-82
2022/05/19 05:22:36;;;;;;;3.70;3.40;;;;;;;20.70;60.21;101182.59;5026524;28;20221;-78
2022/05/19 05:25:05;;;;;;;3.40;3.20;;;;;;;20.76;59.43;101184.94;5025047;28;20260;-78
2022/05/19 05:27:32;;;;;;;3.53;3.23;;;;;;;20.74;59.67;101182.34;5025124;28;20287;-79
2022/05/19 05:29:58;;;;;;;3.40;3.10;;;;;;;20.77;59.48;101203.44;5025629;28;20213;-78
2022/05/19 05:32:24;;;;;;;3.90;3.60;;;;;;;20.83;59.91;101194.28;5026355;28;20230;-79
2022/05/19 05:34:51;;;;;;;3.20;3.00;;;;;;;20.85;59.87;101197.72;5036156;28;20617;-79
2022/05/19 05:37:17;;;;;;;3.60;3.40;;;;;;;20.83;57.61;101242.06;5028213;28;20232;-79
2022/05/19 05:39:44;;;;;;;4.20;3.90;;;;;;;20.90;58.23;101246.13;5032511;28;20569;-80
2022/05/19 05:42:11;;;;;;;3.77;3.47;;;;;;;20.91;57.72;101260.25;5028769;28;20206;-79
2022/05/19 05:44:38;;;;;;;3.77;3.43;;;;;;;20.87;57.81;101262.22;5025896;28;20226;-78
2022/05/19 05:47:05;;;;;;;4.20;3.27;;;;;;;20.90;57.82;101250.59;5024401;28;20202;-79
2022/05/19 05:49:31;;;;;;;4.10;3.00;;;;;;;20.94;56.73;101268.09;5026322;28;20205;-79
2022/05/19 05:51:58;;;;;;;5.00;2.93;;;;;;;20.93;57.00;101279.63;5026192;28;20221;-79
2022/05/19 05:54:24;;;;;;;3.20;2.90;;;;;;;21.00;57.37;101276.59;5026729;28;20194;-78
2022/05/19 05:56:52;;;;;;;2.83;2.60;;;;;;;21.08;57.30;101260.28;5024060;28;20199;-78
2022/05/19 05:59:19;;;;;;;3.57;3.17;;;;;;;21.07;56.46;101292.22;5022199;28;20208;-78
2022/05/19 06:01:46;;;;;;;3.30;2.60;;;;;;;21.13;56.64;101297.22;5024900;28;20248;-79
2022/05/19 06:04:12;;;;;;;2.77;2.57;;;;;;;21.13;56.07;101298.09;5028229;28;20578;-77
2022/05/19 06:06:39;;;;;;;3.93;3.50;;;;;;;21.06;55.46;101304.63;5026198;28;20252;-79
2022/05/19 06:09:05;;;;;;;4.13;3.20;;;;;;;21.12;55.75;101328.22;5023610;28;20639;-78
2022/05/19 06:11:32;;;;;;;3.87;3.57;;;;;;;21.21;55.96;101317.16;5022860;28;20720;-77
2022/05/19 06:13:58;;;;;;;3.37;3.17;;;;;;;21.29;55.76;101337.16;5023541;28;20198;-78
2022/05/19 06:16:26;;;;;;;3.77;3.47;;;;;;;21.27;55.15;101336.38;5025056;28;20696;-78
2022/05/19 06:18:52;;;;;;;3.40;2.70;;;;;;;21.34;55.83;101338.66;5022706;28;20223;-78
2022/05/19 06:21:19;;;;;;;7.43;3.77;;;;;;;21.41;56.14;101326.78;5021750;28;20206;-78
2022/05/19 06:23:45;;;;;;;3.47;3.27;;;;;;;21.48;55.81;101322.06;5025729;28;20285;-78
2022/05/19 06:26:12;;;;;;;3.67;3.47;;;;;;;21.49;56.17;101342.38;5023773;28;20735;-79
2022/05/19 06:28:38;;;;;;;3.10;2.90;;;;;;;21.51;56.25;101347.63;5022263;28;20289;-76
2022/05/19 06:31:06;;;;;;;3.47;2.93;;;;;;;21.52;56.62;101330.72;5023779;28;20198;-78
2022/05/19 06:33:36;;;;;;;3.20;3.00;;;;;;;21.46;56.02;101328.38;5028519;28;20206;-80
2022/05/19 06:36:03;;;;;;;3.20;3.00;;;;;;;21.48;55.42;101302.59;5025112;28;20210;-79
2022/05/19 06:38:30;;;;;;;4.10;3.10;;;;;;;21.46;55.90;101346.97;5023576;28;20720;-79
2022/05/19 06:42:00;;;;;;;3.53;3.23;;;;;;;21.59;56.76;101314.41;5023742;28;20202;-79
2022/05/19 06:43:43;;;;;;;4.30;3.13;;;;;;;21.63;55.09;101343.50;5041476;28;20283;-80
2022/05/19 06:46:10;;;;;;;4.77;3.30;;;;;;;21.67;55.37;101345.06;5041822;28;20202;-80
2022/05/19 06:48:38;;;;;;;4.20;3.00;;;;;;;21.71;54.52;101373.19;5037095;28;20223;-81
2022/05/19 06:51:04;;;;;;;3.20;3.00;;;;;;;21.78;54.07;101372.81;5026307;28;20199;-79
2022/05/19 06:53:30;;;;;;;3.30;3.10;;;;;;;21.77;53.50;101376.38;5027099;28;20197;-80
2022/05/19 06:55:57;;;;;;;3.30;3.00;;;;;;;21.91;54.81;101358.88;5027129;28;20610;-79
2022/05/19 06:58:23;;;;;;;3.50;3.20;;;;;;;22.01;54.09;101374.25;5025386;28;20230;-79
2022/05/19 07:00:50;;;;;;;3.30;3.10;;;;;;;22.13;53.58;101377.22;5024253;28;20627;-80
2022/05/19 07:03:16;;;;;;;3.70;3.30;;;;;;;22.19;53.42;101401.69;5028020;28;20323;-79
2022/05/19 07:05:44;;;;;;;5.30;3.57;;;;;;;22.24;53.11;101398.84;5028761;28;20230;-80
2022/05/19 07:08:11;;;;;;;3.37;3.17;;;;;;;22.22;52.20;101398.03;5023998;28;20250;-79
2022/05/19 07:10:37;;;;;;;3.03;2.87;;;;;;;22.28;52.59;101426.09;5023613;28;20195;-82
2022/05/19 07:13:04;;;;;;;3.17;2.97;;;;;;;22.26;51.25;101404.94;5019411;28;20209;-81
2022/05/19 07:15:30;;;;;;;3.63;3.10;;;;;;;22.30;51.63;101425.13;5030643;28;20651;-80
2022/05/19 07:17:57;;;;;;;3.23;3.03;;;;;;;22.41;52.32;101422.72;5014030;28;20234;-81
2022/05/19 07:23:14;;;;;;;3.20;2.83;;;;;;;22.48;50.98;101441.91;5017735;28;20210;-81
2022/05/19 07:25:41;;;;;;;2.97;2.60;;;;;;;22.62;50.80;101450.97;5017989;28;20214;-81
2022/05/19 07:28:08;;;;;;;3.17;2.97;;;;;;;22.70;51.69;101459.41;5017806;28;20281;-81
2022/05/19 07:30:34;;;;;;;3.10;2.87;;;;;;;22.82;52.25;101407.28;5017081;28;20206;-80
2022/05/19 07:33:01;;;;;;;3.43;3.13;;;;;;;22.85;50.49;101452.38;5023159;28;20333;-81
2022/05/19 07:35:28;;;;;;;4.00;3.70;;;;;;;22.92;50.65;101446.63;5038587;28;20274;-80
2022/05/19 07:37:54;;;;;;;2.83;2.63;;;;;;;22.94;50.41;101406.63;5057219;28;20639;-81
2022/05/19 07:40:22;;;;;;;3.33;3.10;;;;;;;22.95;50.06;101457.13;5048296;28;20290;-81
2022/05/19 07:42:49;;;;;;;3.03;2.67;;;;;;;22.98;48.70;101408.16;5042537;28;20206;-81
2022/05/19 07:45:16;;;;;;;3.00;2.80;;;;;;;23.11;49.78;101461.63;5057301;28;20225;-80
2022/05/19 07:47:42;;;;;;;4.00;3.60;;;;;;;23.13;50.33;101439.31;5058300;28;20271;-81
2022/05/19 07:50:10;;;;;;;3.17;2.90;;;;;;;23.23;50.54;101436.09;5057500;28;20209;-81
2022/05/19 07:52:37;;;;;;;3.10;2.80;;;;;;;23.30;51.37;101406.38;5058380;28;20248;-81
2022/05/19 07:55:04;;;;;;;3.10;2.90;;;;;;;23.35;49.64;101422.13;5058528;28;20259;-81
2022/05/19 07:57:32;;;;;;;3.40;3.13;;;;;;;23.40;50.11;101434.19;5059555;28;20229;-81
2022/05/19 07:59:59;;;;;;;3.07;2.77;;;;;;;23.48;49.15;101449.75;5059034;28;20227;-81
2022/05/19 08:02:25;;;;;;;3.27;2.97;;;;;;;23.59;51.13;101431.34;5058944;28;20210;-81
2022/05/19 08:04:51;;;;;;;3.60;2.73;;;;;;;23.69;49.58;101430.81;5043492;28;20222;-81
2022/05/19 08:07:18;;;;;;;4.13;3.20;;;;;;;23.77;49.75;101444.56;5052666;28;20714;-82
2022/05/19 08:18:02;;;;;;;2.87;2.70;;;;;;;23.69;48.29;101510.81;5060078;28;20268;-82
2022/05/19 08:20:29;;;;;;;2.97;2.77;;;;;;;23.75;47.95;101499.78;5057112;28;20719;-82
2022/05/19 08:22:55;;;;;;;3.53;3.23;;;;;;;23.81;48.01;101494.13;5053023;28;20209;-81
2022/05/19 08:25:25;;;;;;;2.90;2.70;;;;;;;23.76;48.03;101459.69;5043515;28;20306;-81
2022/05/19 08:27:51;;;;;;;2.97;2.77;;;;;;;23.87;48.14;101477.78;5059325;28;20226;-82
2022/05/19 08:30:20;;;;;;;3.20;2.90;;;;;;;23.89;48.61;101485.69;5059186;28;20213;-81
2022/05/19 08:32:46;;;;;;;3.17;2.90;;;;;;;23.89;46.82;101542.53;5058119;28;20211;-81
2022/05/19 08:35:13;;;;;;;3.50;3.20;;;;;;;24.01;48.56;101502.78;5059715;28;20610;-82
2022/05/19 08:37:39;;;;;;;3.03;2.83;;;;;;;23.95;46.07;101486.19;5055697;28;20802;-78
2022/05/19 08:40:07;;;;;;;2.93;2.73;;;;;;;24.06;48.49;101490.03;5048841;28;20198;-80
2022/05/19 08:42:38;;;;;;;3.23;3.03;;;;;;;24.20;50.46;101447.38;5036446;28;20203;-80
2022/05/19 08:45:12;;;;;;;3.57;3.33;;;;;;;24.22;48.02;101506.84;5054589;28;20583;-80
2022/05/19 08:47:39;;;;;;;3.40;3.17;;;;;;;24.33;48.95;101477.69;5054422;28;20606;-80
2022/05/19 08:50:12;;;;;;;3.50;3.30;;;;;;;24.44;48.91;101468.19;5053876;28;20213;-79
2022/05/19 08:52:43;;;;;;;3.20;3.00;;;;;;;24.54;50.46;101454.22;5054442;28;20253;-78
2022/05/19 08:55:14;;;;;;;3.10;2.90;;;;;;;24.52;46.32;101485.50;5055147;28;20260;-78
2022/05/19 08:57:47;;;;;;;3.73;3.50;;;;;;;24.61;45.68;101534.78;5054836;28;20230;-78
2022/05/19 09:00:19;;;;;;;3.00;2.80;;;;;;;24.73;46.53;101437.06;5054395;28;20202;-81
2022/05/19 09:03:05;;;;;;;4.00;3.07;;;;;;;24.65;45.85;101538.13;5051409;28;20273;-78
2022/05/19 09:05:46;;;;;;;3.90;3.60;;;;;;;24.77;47.54;101514.19;5036374;28;20235;-80
2022/05/19 09:08:18;;;;;;;5.20;3.20;;;;;;;24.80;46.79;101499.81;5054218;28;20597;-80
2022/05/19 09:10:57;;;;;;;3.60;2.90;;;;;;;24.94;48.03;101480.25;5054339;28;20677;-79
2022/05/19 09:13:33;;;;;;;3.10;2.90;;;;;;;24.98;48.24;101461.25;5054705;28;20745;-78
2022/05/19 09:16:03;;;;;;;3.73;3.33;;;;;;;24.90;45.01;101541.03;5054609;28;20731;-79
2022/05/19 09:18:37;;;;;;;3.17;2.97;;;;;;;24.93;47.46;101523.94;5054359;28;20230;-78
2022/05/19 09:21:05;;;;;;;3.30;3.10;;;;;;;24.97;45.84;101504.09;5052448;28;20257;-79
2022/05/19 09:23:33;;;;;;;3.07;2.87;;;;;;;25.02;46.03;101527.88;5054050;28;20631;-79
2022/05/19 09:26:07;;;;;;;3.17;2.97;;;;;;;25.14;46.84;101455.81;5054222;28;20209;-78
2022/05/19 09:28:35;;;;;;;3.20;3.00;;;;;;;25.27;47.96;101466.59;5054060;28;20227;-79
2022/05/19 09:31:01;;;;;;;3.53;3.30;;;;;;;25.41;47.90;101406.91;5053890;28;20246;-79
2022/05/19 09:33:33;;;;;;;3.60;3.30;;;;;;;25.51;46.78;101449.91;5047398;28;20217;-78
2022/05/19 09:36:01;;;;;;;3.63;3.40;;;;;;;25.63;47.58;101493.69;5038104;28;20215;-79
2022/05/19 09:38:33;;;;;;;3.40;3.10;;;;;;;25.73;47.18;101423.47;5055163;28;20233;-81
2022/05/19 09:41:03;;;;;;;4.30;3.03;;;;;;;25.77;45.55;101486.50;5053003;28;20628;-81
2022/05/19 09:43:33;;;;;;;3.33;3.13;;;;;;;25.79;45.62;101490.88;5037353;28;20238;-80
2022/05/19 09:46:05;;;;;;;5.37;3.53;;;;;;;25.74;44.35;101537.50;5055890;28;20671;-81
2022/05/19 09:48:36;;;;;;;3.57;3.10;;;;;;;25.83;44.69;101503.94;5055696;28;20236;-81
2022/05/19 09:51:09;;;;;;;5.67;3.67;;;;;;;25.93;44.45;101526.50;5055713;28;20824;-81
2022/05/19 09:53:39;;;;;;;3.37;3.17;;;;;;;25.79;42.48;101517.63;5055549;28;20236;-80
2022/05/19 09:56:12;;;;;;;3.40;3.10;;;;;;;25.92;44.35;101530.09;5055503;28;20256;-81
2022/05/19 09:58:43;;;;;;;3.30;3.10;;;;;;;26.00;43.57;101552.84;5054646;28;20237;-80
2022/05/19 10:01:18;;;;;;;3.50;3.30;;;;;;;25.94;42.63;101557.63;5055534;28;20588;-80
2022/05/19 10:03:51;;;;;;;3.80;3.50;;;;;;;26.07;43.54;101557.69;5046450;28;20200;-81
2022/05/19 10:06:21;;;;;;;3.27;3.00;;;;;;;26.24;43.77;101535.13;5038711;28;20212;-80
2022/05/19 10:08:49;;;;;;;3.20;3.00;;;;;;;26.29;43.56;101527.66;5053681;28;20307;-78
2022/05/19 10:11:24;;;;;;;3.60;3.27;;;;;;;26.07;41.73;101514.00;5054792;28;20252;-80
2022/05/19 10:13:55;;;;;;;3.43;3.23;;;;;;;25.93;42.69;101600.56;5054976;28;20228;-80
2022/05/19 10:16:36;;;;;;;3.60;3.30;;;;;;;26.10;42.48;101549.44;5054789;28;20206;-80
2022/05/19 10:19:23;;;;;;;3.13;2.93;;;;;;;26.26;43.14;101559.13;5053698;28;20233;-80
2022/05/19 10:22:15;;;;;;;3.60;3.30;;;;;;;26.39;42.67;101551.97;5054252;28;20216;-79
2022/05/19 10:25:05;;;;;;;3.37;3.03;;;;;;;26.48;42.04;101537.97;5046005;28;20571;-80
2022/05/19 10:33:32;;;;;;;3.07;2.87;;;;;;;26.45;41.86;101583.69;5015272;28;20212;-80
2022/05/19 10:36:13;;;;;;;3.50;3.20;;;;;;;26.59;40.92;101501.59;5015105;28;20186;-80
2022/05/19 10:38:45;;;;;;;3.20;3.00;;;;;;;26.78;39.97;101568.09;5014205;28;20231;-80
2022/05/19 10:41:35;;;;;;;3.20;3.00;;;;;;;26.97;42.75;101587.31;5015102;28;20269;-79
2022/05/19 10:44:21;;;;;;;3.27;3.07;;;;;;;26.81;40.32;101574.13;5014554;28;20225;-80
2022/05/19 10:46:57;;;;;;;8.43;3.07;;;;;;;27.05;40.53;101581.41;5015145;28;20210;-80
2022/05/19 10:49:53;;;;;;;2.90;2.70;;;;;;;27.19;40.04;101615.28;5014868;28;20256;-79
2022/05/19 10:52:33;;;;;;;3.27;3.07;;;;;;;27.15;39.30;101598.56;5019222;28;20206;-78
2022/05/19 10:55:10;;;;;;;2.97;2.77;;;;;;;27.28;39.62;101587.88;5032644;28;20592;-78
2022/05/19 10:58:04;;;;;;;3.23;2.93;;;;;;;27.08;38.11;101624.09;5021493;28;20226;-81
2022/05/19 11:00:46;;;;;;;3.00;2.80;;;;;;;27.16;39.89;101623.56;4979896;28;20585;-81
2022/05/19 11:03:50;;;;;;;2.80;2.70;;;;;;;27.35;39.06;101589.13;5017765;28;20649;-81
2022/05/19 11:06:30;;;;;;;2.80;2.67;;;;;;;27.40;38.93;101611.13;5016359;28;20602;-81
2022/05/19 11:09:06;;;;;;;2.90;2.70;;;;;;;27.57;38.21;101590.25;5017470;28;20501;-81
2022/05/19 11:11:48;;;;;;;7.83;3.33;;;;;;;27.56;36.05;101605.50;5019846;28;20210;-82
2022/05/19 11:14:26;;;;;;;3.07;2.67;;;;;;;27.71;38.14;101659.84;5016996;28;20661;-79
2022/05/19 11:16:59;;;;;;;3.43;3.00;;;;;;;27.78;37.76;101641.50;5012947;28;20259;-79
2022/05/19 11:19:31;;;;;;;3.07;2.87;;;;;;;28.03;36.61;101619.13;5010857;28;20261;-81
2022/05/19 11:22:01;;;;;;;2.90;2.70;;;;;;;28.23;37.28;101578.22;5013044;28;20669;-81
2022/05/19 11:24:35;;;;;;;3.10;2.90;;;;;;;27.95;37.08;101654.59;5019406;28;20309;-79
2022/05/19 11:27:07;;;;;;;3.13;2.83;;;;;;;28.25;37.17;101583.47;5020022;28;20206;-79
2022/05/19 11:29:41;;;;;;;3.33;3.03;;;;;;;28.42;37.77;101596.47;5014880;28;20218;-82
2022/05/19 11:32:13;;;;;;;3.03;2.83;;;;;;;28.58;36.56;101588.13;5016334;28;20203;-81
2022/05/19 11:34:45;;;;;;;3.30;3.17;;;;;;;28.87;37.06;101603.81;5015913;28;20257;-82
2022/05/19 11:37:22;;;;;;;3.03;2.83;;;;;;;29.56;34.24;101619.06;5016269;28;20235;-82
2022/05/19 11:39:59;;;;;;;3.40;3.10;;;;;;;30.44;33.90;101648.59;5014906;28;20218;-82
2022/05/19 11:42:38;;;;;;;4.03;3.20;;;;;;;31.20;32.61;101718.59;5016766;28;20206;-82
2022/05/19 11:45:09;;;;;;;2.87;2.67;;;;;;;32.44;31.82;101738.28;5017027;28;20230;-83
2022/05/19 11:56:10;;;;;;;2.87;2.77;;;;;;;34.58;26.52;101838.00;4989946;28;20244;-80
2022/05/19 11:58:38;;;;;;;2.57;2.37;;;;;;;34.72;24.83;101842.09;5021086;28;20274;-80
2022/05/19 12:01:09;;;;;;;7.10;3.03;;;;;;;34.50;26.07;101850.66;5038407;28;20198;-80
2022/05/19 12:03:42;;;;;;;2.93;2.73;;;;;;;35.52;25.19;101835.84;5054879;28;20255;-81